sensor_id;sensor_type;location;lat;lon;timestamp;P1;durP1;ratioP1;P2;durP2;ratioP2
5606;SDS011;2825;53.116;9.392;2022-10-17T00:00:22;5.43;;;2.87;;
5606;SDS011;2825;53.116;9.392;2022-10-17T00:02:48;5.83;;;3.77;;
5606;SDS011;2825;53.116;9.392;2022-10-17T00:05:13;3.93;;;3.53;;
5606;SDS011;2825;53.116;9.392;2022-10-17T00:07:39;4.37;;;2.43;;
5606;SDS011;2825;53.116;9.392;2022-10-17T00:10:05;3.90;;;2.97;;
5606;SDS011;2825;53.116;9.392;2022-10-17T00:12:31;6.83;;;3.20;;
5606;SDS011;2825;53.116;9.392;2022-10-17T00:14:57;7.27;;;3.93;;
5606;SDS011;2825;53.116;9.392;2022-10-17T00:17:23;3.93;;;3.10;;
5606;SDS011;2825;53.116;9.392;2022-10-17T00:19:49;6.87;;;4.20;;
5606;SDS011;2825;53.116;9.392;2022-10-17T00:22:14;6.67;;;4.90;;
5606;SDS011;2825;53.116;9.392;2022-10-17T00:24:40;6.43;;;3.80;;
5606;SDS011;2825;53.116;9.392;2022-10-17T00:27:06;6.47;;;4.00;;
5606;SDS011;2825;53.116;9.392;2022-10-17T00:29:32;8.50;;;4.20;;
5606;SDS011;2825;53.116;9.392;2022-10-17T00:31:58;5.60;;;3.67;;
5606;SDS011;2825;53.116;9.392;2022-10-17T00:34:24;14.47;;;3.80;;
5606;SDS011;2825;53.116;9.392;2022-10-17T00:36:49;7.20;;;3.90;;
5606;SDS011;2825;53.116;9.392;2022-10-17T00:39:15;9.83;;;3.70;;
5606;SDS011;2825;53.116;9.392;2022-10-17T00:41:41;6.47;;;3.87;;
5606;SDS011;2825;53.116;9.392;2022-10-17T00:44:56;5.40;;;5.00;;
5606;SDS011;2825;53.116;9.392;2022-10-17T00:46:55;7.77;;;4.00;;
5606;SDS011;2825;53.116;9.392;2022-10-17T00:49:22;6.47;;;4.13;;
5606;SDS011;2825;53.116;9.392;2022-10-17T00:51:58;4.40;;;4.00;;
5606;SDS011;2825;53.116;9.392;2022-10-17T00:54:27;4.63;;;3.90;;
5606;SDS011;2825;53.116;9.392;2022-10-17T00:56:58;7.67;;;5.60;;
5606;SDS011;2825;53.116;9.392;2022-10-17T00:59:24;4.00;;;3.67;;
5606;SDS011;2825;53.116;9.392;2022-10-17T01:02:10;8.40;;;3.80;;
5606;SDS011;2825;53.116;9.392;2022-10-17T01:04:39;3.20;;;2.77;;
5606;SDS011;2825;53.116;9.392;2022-10-17T01:07:07;4.33;;;3.73;;
5606;SDS011;2825;53.116;9.392;2022-10-17T01:09:33;6.03;;;2.80;;
5606;SDS011;2825;53.116;9.392;2022-10-17T01:12:03;4.80;;;4.13;;
5606;SDS011;2825;53.116;9.392;2022-10-17T01:14:47;4.20;;;2.73;;
5606;SDS011;2825;53.116;9.392;2022-10-17T01:17:34;6.30;;;3.17;;
5606;SDS011;2825;53.116;9.392;2022-10-17T01:22:46;5.93;;;2.70;;
5606;SDS011;2825;53.116;9.392;2022-10-17T01:31:05;3.97;;;3.43;;
5606;SDS011;2825;53.116;9.392;2022-10-17T01:34:01;3.20;;;2.77;;
5606;SDS011;2825;53.116;9.392;2022-10-17T01:47:12;3.53;;;3.07;;
5606;SDS011;2825;53.116;9.392;2022-10-17T01:49:43;7.33;;;3.03;;
5606;SDS011;2825;53.116;9.392;2022-10-17T01:52:35;3.70;;;2.90;;
5606;SDS011;2825;53.116;9.392;2022-10-17T01:55:10;14.23;;;3.23;;
5606;SDS011;2825;53.116;9.392;2022-10-17T01:57:42;3.30;;;3.00;;
5606;SDS011;2825;53.116;9.392;2022-10-17T02:00:20;4.03;;;3.47;;
5606;SDS011;2825;53.116;9.392;2022-10-17T02:02:49;3.70;;;2.60;;
5606;SDS011;2825;53.116;9.392;2022-10-17T02:05:19;5.83;;;3.00;;
5606;SDS011;2825;53.116;9.392;2022-10-17T02:07:48;3.57;;;3.23;;
5606;SDS011;2825;53.116;9.392;2022-10-17T02:10:29;5.07;;;3.37;;
5606;SDS011;2825;53.116;9.392;2022-10-17T02:29:54;6.07;;;3.37;;
5606;SDS011;2825;53.116;9.392;2022-10-17T02:32:31;5.27;;;3.37;;
5606;SDS011;2825;53.116;9.392;2022-10-17T02:35:13;3.30;;;3.00;;
5606;SDS011;2825;53.116;9.392;2022-10-17T02:37:41;3.40;;;3.10;;
5606;SDS011;2825;53.116;9.392;2022-10-17T02:40:09;5.87;;;2.50;;
5606;SDS011;2825;53.116;9.392;2022-10-17T02:42:36;3.13;;;2.93;;
5606;SDS011;2825;53.116;9.392;2022-10-17T02:45:05;4.03;;;3.63;;
5606;SDS011;2825;53.116;9.392;2022-10-17T02:50:21;7.20;;;3.90;;
5606;SDS011;2825;53.116;9.392;2022-10-17T02:53:06;2.87;;;2.67;;
5606;SDS011;2825;53.116;9.392;2022-10-17T02:55:38;3.63;;;3.33;;
5606;SDS011;2825;53.116;9.392;2022-10-17T02:58:11;3.50;;;2.80;;
5606;SDS011;2825;53.116;9.392;2022-10-17T03:00:42;3.47;;;3.17;;
5606;SDS011;2825;53.116;9.392;2022-10-17T03:03:18;3.67;;;3.43;;
5606;SDS011;2825;53.116;9.392;2022-10-17T03:05:46;3.53;;;3.30;;
5606;SDS011;2825;53.116;9.392;2022-10-17T03:08:11;3.90;;;2.97;;
5606;SDS011;2825;53.116;9.392;2022-10-17T03:10:37;3.87;;;2.57;;
5606;SDS011;2825;53.116;9.392;2022-10-17T03:13:02;9.77;;;3.40;;
5606;SDS011;2825;53.116;9.392;2022-10-17T03:15:28;4.20;;;3.20;;
5606;SDS011;2825;53.116;9.392;2022-10-17T03:17:54;3.37;;;3.07;;
5606;SDS011;2825;53.116;9.392;2022-10-17T03:20:19;4.47;;;3.43;;
5606;SDS011;2825;53.116;9.392;2022-10-17T03:22:45;4.63;;;3.33;;
5606;SDS011;2825;53.116;9.392;2022-10-17T03:25:11;4.63;;;3.00;;
5606;SDS011;2825;53.116;9.392;2022-10-17T03:27:36;2.80;;;2.60;;
5606;SDS011;2825;53.116;9.392;2022-10-17T03:30:02;3.17;;;2.87;;
5606;SDS011;2825;53.116;9.392;2022-10-17T03:32:28;3.30;;;3.10;;
5606;SDS011;2825;53.116;9.392;2022-10-17T03:34:53;3.60;;;3.30;;
5606;SDS011;2825;53.116;9.392;2022-10-17T03:37:19;5.40;;;3.23;;
5606;SDS011;2825;53.116;9.392;2022-10-17T03:39:44;3.77;;;3.37;;
5606;SDS011;2825;53.116;9.392;2022-10-17T03:42:10;3.13;;;2.93;;
5606;SDS011;2825;53.116;9.392;2022-10-17T03:44:36;5.07;;;3.70;;
5606;SDS011;2825;53.116;9.392;2022-10-17T03:47:01;5.07;;;3.67;;
5606;SDS011;2825;53.116;9.392;2022-10-17T03:49:27;3.37;;;3.00;;
5606;SDS011;2825;53.116;9.392;2022-10-17T03:51:53;7.37;;;3.37;;
5606;SDS011;2825;53.116;9.392;2022-10-17T03:54:18;3.30;;;3.10;;
5606;SDS011;2825;53.116;9.392;2022-10-17T03:56:44;5.30;;;3.60;;
5606;SDS011;2825;53.116;9.392;2022-10-17T03:59:13;4.20;;;3.80;;
5606;SDS011;2825;53.116;9.392;2022-10-17T04:01:39;5.20;;;3.80;;
5606;SDS011;2825;53.116;9.392;2022-10-17T04:04:05;3.33;;;3.13;;
5606;SDS011;2825;53.116;9.392;2022-10-17T04:06:30;4.23;;;3.40;;
5606;SDS011;2825;53.116;9.392;2022-10-17T04:08:56;4.33;;;3.93;;
5606;SDS011;2825;53.116;9.392;2022-10-17T04:11:22;5.93;;;3.97;;
5606;SDS011;2825;53.116;9.392;2022-10-17T04:13:51;4.30;;;4.00;;
5606;SDS011;2825;53.116;9.392;2022-10-17T04:16:18;5.10;;;3.30;;
5606;SDS011;2825;53.116;9.392;2022-10-17T04:18:44;7.30;;;3.33;;
5606;SDS011;2825;53.116;9.392;2022-10-17T04:21:10;4.83;;;4.40;;
5606;SDS011;2825;53.116;9.392;2022-10-17T04:23:37;6.13;;;4.00;;
5606;SDS011;2825;53.116;9.392;2022-10-17T04:26:03;4.40;;;3.97;;
5606;SDS011;2825;53.116;9.392;2022-10-17T04:28:30;6.67;;;5.00;;
5606;SDS011;2825;53.116;9.392;2022-10-17T04:30:57;5.30;;;4.03;;
5606;SDS011;2825;53.116;9.392;2022-10-17T04:33:27;4.57;;;4.07;;
5606;SDS011;2825;53.116;9.392;2022-10-17T04:38:30;6.33;;;4.00;;
5606;SDS011;2825;53.116;9.392;2022-10-17T04:40:56;3.90;;;3.53;;
5606;SDS011;2825;53.116;9.392;2022-10-17T04:43:27;5.07;;;4.33;;
5606;SDS011;2825;53.116;9.392;2022-10-17T04:45:53;6.13;;;3.80;;
5606;SDS011;2825;53.116;9.392;2022-10-17T04:48:21;4.73;;;4.37;;
5606;SDS011;2825;53.116;9.392;2022-10-17T04:50:53;4.93;;;4.43;;
5606;SDS011;2825;53.116;9.392;2022-10-17T04:53:20;4.40;;;4.07;;
5606;SDS011;2825;53.116;9.392;2022-10-17T04:55:47;4.13;;;3.80;;
5606;SDS011;2825;53.116;9.392;2022-10-17T04:58:12;4.33;;;3.93;;
5606;SDS011;2825;53.116;9.392;2022-10-17T05:00:38;5.30;;;4.90;;
5606;SDS011;2825;53.116;9.392;2022-10-17T05:03:04;10.87;;;4.20;;
5606;SDS011;2825;53.116;9.392;2022-10-17T05:05:29;9.80;;;5.20;;
5606;SDS011;2825;53.116;9.392;2022-10-17T05:07:55;5.23;;;4.73;;
5606;SDS011;2825;53.116;9.392;2022-10-17T05:10:21;5.80;;;4.83;;
5606;SDS011;2825;53.116;9.392;2022-10-17T05:12:47;5.63;;;4.97;;
5606;SDS011;2825;53.116;9.392;2022-10-17T05:15:13;7.13;;;5.00;;
5606;SDS011;2825;53.116;9.392;2022-10-17T05:17:39;4.50;;;4.20;;
5606;SDS011;2825;53.116;9.392;2022-10-17T05:20:05;6.67;;;4.17;;
5606;SDS011;2825;53.116;9.392;2022-10-17T05:22:31;4.77;;;4.37;;
5606;SDS011;2825;53.116;9.392;2022-10-17T05:24:57;5.70;;;5.20;;
5606;SDS011;2825;53.116;9.392;2022-10-17T05:27:22;9.33;;;3.90;;
5606;SDS011;2825;53.116;9.392;2022-10-17T05:29:48;8.40;;;4.33;;
5606;SDS011;2825;53.116;9.392;2022-10-17T05:32:14;4.23;;;3.93;;
5606;SDS011;2825;53.116;9.392;2022-10-17T05:34:40;5.07;;;4.53;;
5606;SDS011;2825;53.116;9.392;2022-10-17T05:37:06;4.70;;;4.30;;
5606;SDS011;2825;53.116;9.392;2022-10-17T05:39:31;6.40;;;5.47;;
5606;SDS011;2825;53.116;9.392;2022-10-17T05:41:57;6.37;;;5.77;;
5606;SDS011;2825;53.116;9.392;2022-10-17T05:44:23;5.40;;;4.90;;
5606;SDS011;2825;53.116;9.392;2022-10-17T05:46:48;4.97;;;4.30;;
5606;SDS011;2825;53.116;9.392;2022-10-17T05:49:14;5.27;;;4.77;;
5606;SDS011;2825;53.116;9.392;2022-10-17T05:51:40;8.20;;;4.40;;
5606;SDS011;2825;53.116;9.392;2022-10-17T05:54:06;5.60;;;4.80;;
5606;SDS011;2825;53.116;9.392;2022-10-17T05:56:32;4.87;;;4.40;;
5606;SDS011;2825;53.116;9.392;2022-10-17T05:58:59;12.00;;;4.40;;
5606;SDS011;2825;53.116;9.392;2022-10-17T06:01:25;7.63;;;5.33;;
5606;SDS011;2825;53.116;9.392;2022-10-17T06:03:51;6.60;;;5.90;;
5606;SDS011;2825;53.116;9.392;2022-10-17T06:06:16;6.00;;;4.80;;
5606;SDS011;2825;53.116;9.392;2022-10-17T06:08:43;7.10;;;4.77;;
5606;SDS011;2825;53.116;9.392;2022-10-17T06:11:09;6.83;;;4.97;;
5606;SDS011;2825;53.116;9.392;2022-10-17T06:13:37;5.93;;;5.33;;
5606;SDS011;2825;53.116;9.392;2022-10-17T06:16:03;9.60;;;5.13;;
5606;SDS011;2825;53.116;9.392;2022-10-17T06:18:29;5.30;;;4.80;;
5606;SDS011;2825;53.116;9.392;2022-10-17T06:21:05;9.70;;;4.97;;
5606;SDS011;2825;53.116;9.392;2022-10-17T06:23:32;10.97;;;4.60;;
5606;SDS011;2825;53.116;9.392;2022-10-17T06:25:59;6.70;;;4.50;;
5606;SDS011;2825;53.116;9.392;2022-10-17T06:28:25;6.73;;;5.90;;
5606;SDS011;2825;53.116;9.392;2022-10-17T06:30:51;6.17;;;5.67;;
5606;SDS011;2825;53.116;9.392;2022-10-17T06:33:16;10.30;;;5.20;;
5606;SDS011;2825;53.116;9.392;2022-10-17T06:35:42;13.37;;;5.93;;
5606;SDS011;2825;53.116;9.392;2022-10-17T06:38:08;6.47;;;5.83;;
5606;SDS011;2825;53.116;9.392;2022-10-17T06:40:34;6.70;;;6.10;;
5606;SDS011;2825;53.116;9.392;2022-10-17T06:42:59;7.60;;;6.30;;
5606;SDS011;2825;53.116;9.392;2022-10-17T06:45:25;6.30;;;5.70;;
5606;SDS011;2825;53.116;9.392;2022-10-17T06:47:51;5.87;;;5.37;;
5606;SDS011;2825;53.116;9.392;2022-10-17T06:50:17;5.70;;;5.20;;
5606;SDS011;2825;53.116;9.392;2022-10-17T06:52:43;5.60;;;5.10;;
5606;SDS011;2825;53.116;9.392;2022-10-17T06:55:09;9.63;;;5.47;;
5606;SDS011;2825;53.116;9.392;2022-10-17T06:57:34;10.30;;;5.83;;
5606;SDS011;2825;53.116;9.392;2022-10-17T07:00:00;8.47;;;5.43;;
5606;SDS011;2825;53.116;9.392;2022-10-17T07:02:26;6.40;;;5.13;;
5606;SDS011;2825;53.116;9.392;2022-10-17T07:04:51;7.83;;;5.63;;
5606;SDS011;2825;53.116;9.392;2022-10-17T07:07:17;8.30;;;6.20;;
5606;SDS011;2825;53.116;9.392;2022-10-17T07:09:43;6.13;;;5.53;;
5606;SDS011;2825;53.116;9.392;2022-10-17T07:12:08;14.40;;;7.50;;
5606;SDS011;2825;53.116;9.392;2022-10-17T07:14:36;6.90;;;5.67;;
5606;SDS011;2825;53.116;9.392;2022-10-17T07:17:02;8.97;;;6.50;;
5606;SDS011;2825;53.116;9.392;2022-10-17T07:19:27;6.37;;;5.87;;
5606;SDS011;2825;53.116;9.392;2022-10-17T07:21:53;7.13;;;6.57;;
5606;SDS011;2825;53.116;9.392;2022-10-17T07:24:19;8.13;;;7.33;;
5606;SDS011;2825;53.116;9.392;2022-10-17T07:26:45;7.50;;;6.43;;
5606;SDS011;2825;53.116;9.392;2022-10-17T07:29:11;8.53;;;6.70;;
5606;SDS011;2825;53.116;9.392;2022-10-17T07:31:37;6.20;;;5.60;;
5606;SDS011;2825;53.116;9.392;2022-10-17T07:34:02;6.67;;;5.63;;
5606;SDS011;2825;53.116;9.392;2022-10-17T07:36:28;6.63;;;5.80;;
5606;SDS011;2825;53.116;9.392;2022-10-17T07:38:54;7.90;;;5.50;;
5606;SDS011;2825;53.116;9.392;2022-10-17T07:41:20;8.27;;;5.07;;
5606;SDS011;2825;53.116;9.392;2022-10-17T07:43:46;6.37;;;5.80;;
5606;SDS011;2825;53.116;9.392;2022-10-17T07:46:12;8.07;;;4.90;;
5606;SDS011;2825;53.116;9.392;2022-10-17T07:48:37;6.07;;;4.67;;
5606;SDS011;2825;53.116;9.392;2022-10-17T07:51:05;6.23;;;5.63;;
5606;SDS011;2825;53.116;9.392;2022-10-17T07:53:34;6.70;;;6.10;;
5606;SDS011;2825;53.116;9.392;2022-10-17T07:56:02;5.67;;;4.97;;
5606;SDS011;2825;53.116;9.392;2022-10-17T07:58:32;6.10;;;5.53;;
5606;SDS011;2825;53.116;9.392;2022-10-17T08:00:59;5.93;;;4.83;;
5606;SDS011;2825;53.116;9.392;2022-10-17T08:03:26;5.37;;;4.87;;
5606;SDS011;2825;53.116;9.392;2022-10-17T08:05:55;5.40;;;5.00;;
5606;SDS011;2825;53.116;9.392;2022-10-17T08:08:22;6.30;;;5.40;;
5606;SDS011;2825;53.116;9.392;2022-10-17T08:10:47;5.07;;;4.50;;
5606;SDS011;2825;53.116;9.392;2022-10-17T08:13:13;9.50;;;4.30;;
5606;SDS011;2825;53.116;9.392;2022-10-17T08:15:38;5.93;;;4.93;;
5606;SDS011;2825;53.116;9.392;2022-10-17T08:18:04;4.70;;;4.30;;
5606;SDS011;2825;53.116;9.392;2022-10-17T08:20:30;5.00;;;4.60;;
5606;SDS011;2825;53.116;9.392;2022-10-17T08:22:55;6.00;;;5.47;;
5606;SDS011;2825;53.116;9.392;2022-10-17T08:25:21;5.60;;;3.87;;
5606;SDS011;2825;53.116;9.392;2022-10-17T08:27:47;7.50;;;4.30;;
5606;SDS011;2825;53.116;9.392;2022-10-17T08:30:13;4.10;;;3.80;;
5606;SDS011;2825;53.116;9.392;2022-10-17T08:32:39;7.60;;;4.57;;
5606;SDS011;2825;53.116;9.392;2022-10-17T08:35:05;4.60;;;4.20;;
5606;SDS011;2825;53.116;9.392;2022-10-17T08:37:31;3.83;;;3.53;;
5606;SDS011;2825;53.116;9.392;2022-10-17T08:39:57;5.47;;;4.33;;
5606;SDS011;2825;53.116;9.392;2022-10-17T08:48:07;3.53;;;3.13;;
5606;SDS011;2825;53.116;9.392;2022-10-17T08:51:12;6.03;;;3.63;;
5606;SDS011;2825;53.116;9.392;2022-10-17T08:56:39;4.70;;;3.40;;
5606;SDS011;2825;53.116;9.392;2022-10-17T08:59:11;7.50;;;3.97;;
5606;SDS011;2825;53.116;9.392;2022-10-17T09:01:49;3.57;;;3.27;;
5606;SDS011;2825;53.116;9.392;2022-10-17T09:15:43;9.53;;;3.97;;
5606;SDS011;2825;53.116;9.392;2022-10-17T09:21:00;3.73;;;3.43;;
5606;SDS011;2825;53.116;9.392;2022-10-17T09:23:43;4.47;;;4.10;;
5606;SDS011;2825;53.116;9.392;2022-10-17T09:26:12;3.97;;;2.67;;
5606;SDS011;2825;53.116;9.392;2022-10-17T09:28:39;4.23;;;2.90;;
5606;SDS011;2825;53.116;9.392;2022-10-17T09:31:17;3.53;;;2.90;;
5606;SDS011;2825;53.116;9.392;2022-10-17T09:33:47;3.00;;;2.80;;
5606;SDS011;2825;53.116;9.392;2022-10-17T09:36:16;3.17;;;2.80;;
5606;SDS011;2825;53.116;9.392;2022-10-17T09:38:48;4.90;;;2.20;;
5606;SDS011;2825;53.116;9.392;2022-10-17T09:41:35;4.27;;;3.60;;
5606;SDS011;2825;53.116;9.392;2022-10-17T09:44:20;5.20;;;3.23;;
5606;SDS011;2825;53.116;9.392;2022-10-17T09:49:30;6.70;;;3.30;;
5606;SDS011;2825;53.116;9.392;2022-10-17T09:51:58;8.47;;;4.00;;
5606;SDS011;2825;53.116;9.392;2022-10-17T09:54:32;2.67;;;2.47;;
5606;SDS011;2825;53.116;9.392;2022-10-17T09:57:09;3.73;;;3.10;;
5606;SDS011;2825;53.116;9.392;2022-10-17T09:59:37;5.27;;;3.67;;
5606;SDS011;2825;53.116;9.392;2022-10-17T10:05:05;11.17;;;3.90;;
5606;SDS011;2825;53.116;9.392;2022-10-17T10:07:40;4.10;;;3.30;;
5606;SDS011;2825;53.116;9.392;2022-10-17T10:10:21;2.73;;;2.53;;
5606;SDS011;2825;53.116;9.392;2022-10-17T10:13:05;3.50;;;2.77;;
5606;SDS011;2825;53.116;9.392;2022-10-17T10:15:38;4.30;;;3.40;;
5606;SDS011;2825;53.116;9.392;2022-10-17T10:18:38;5.33;;;2.63;;
5606;SDS011;2825;53.116;9.392;2022-10-17T10:23:29;4.47;;;2.70;;
5606;SDS011;2825;53.116;9.392;2022-10-17T10:26:02;8.33;;;3.80;;
5606;SDS011;2825;53.116;9.392;2022-10-17T10:28:31;3.93;;;2.47;;
5606;SDS011;2825;53.116;9.392;2022-10-17T10:30:59;5.53;;;3.33;;
5606;SDS011;2825;53.116;9.392;2022-10-17T10:33:28;4.20;;;3.80;;
5606;SDS011;2825;53.116;9.392;2022-10-17T10:36:00;3.30;;;3.10;;
5606;SDS011;2825;53.116;9.392;2022-10-17T10:38:28;8.17;;;3.80;;
5606;SDS011;2825;53.116;9.392;2022-10-17T10:46:25;6.93;;;2.90;;
5606;SDS011;2825;53.116;9.392;2022-10-17T10:48:56;5.37;;;3.57;;
5606;SDS011;2825;53.116;9.392;2022-10-17T10:54:33;3.13;;;2.83;;
5606;SDS011;2825;53.116;9.392;2022-10-17T10:56:50;6.17;;;3.70;;
5606;SDS011;2825;53.116;9.392;2022-10-17T10:59:23;3.67;;;2.63;;
5606;SDS011;2825;53.116;9.392;2022-10-17T11:01:55;4.93;;;3.27;;
5606;SDS011;2825;53.116;9.392;2022-10-17T11:07:16;5.93;;;3.37;;
5606;SDS011;2825;53.116;9.392;2022-10-17T11:12:43;5.40;;;3.80;;
5606;SDS011;2825;53.116;9.392;2022-10-17T11:18:38;3.53;;;2.97;;
5606;SDS011;2825;53.116;9.392;2022-10-17T11:24:06;4.10;;;3.37;;
5606;SDS011;2825;53.116;9.392;2022-10-17T11:26:37;4.27;;;3.97;;
5606;SDS011;2825;53.116;9.392;2022-10-17T11:29:18;5.53;;;3.43;;
5606;SDS011;2825;53.116;9.392;2022-10-17T11:31:46;4.20;;;3.00;;
5606;SDS011;2825;53.116;9.392;2022-10-17T11:34:16;7.03;;;4.17;;
5606;SDS011;2825;53.116;9.392;2022-10-17T11:36:46;4.83;;;3.63;;
5606;SDS011;2825;53.116;9.392;2022-10-17T11:39:20;5.10;;;3.40;;
5606;SDS011;2825;53.116;9.392;2022-10-17T11:42:08;4.37;;;3.27;;
5606;SDS011;2825;53.116;9.392;2022-10-17T11:44:37;6.83;;;4.80;;
5606;SDS011;2825;53.116;9.392;2022-10-17T11:50:05;6.00;;;3.37;;
5606;SDS011;2825;53.116;9.392;2022-10-17T11:52:45;4.47;;;3.60;;
5606;SDS011;2825;53.116;9.392;2022-10-17T11:55:20;4.70;;;3.47;;
5606;SDS011;2825;53.116;9.392;2022-10-17T12:06:10;3.90;;;3.50;;
5606;SDS011;2825;53.116;9.392;2022-10-17T12:22:48;6.70;;;4.07;;
5606;SDS011;2825;53.116;9.392;2022-10-17T12:25:16;8.27;;;4.23;;
5606;SDS011;2825;53.116;9.392;2022-10-17T12:27:45;4.30;;;3.90;;
5606;SDS011;2825;53.116;9.392;2022-10-17T12:30:19;4.30;;;3.77;;
5606;SDS011;2825;53.116;9.392;2022-10-17T12:35:36;4.00;;;3.67;;
5606;SDS011;2825;53.116;9.392;2022-10-17T12:38:23;4.50;;;4.10;;
5606;SDS011;2825;53.116;9.392;2022-10-17T12:40:51;7.10;;;4.20;;
5606;SDS011;2825;53.116;9.392;2022-10-17T12:45:57;9.23;;;4.80;;
5606;SDS011;2825;53.116;9.392;2022-10-17T12:53:35;6.53;;;5.50;;
5606;SDS011;2825;53.116;9.392;2022-10-17T12:56:09;6.97;;;6.10;;
5606;SDS011;2825;53.116;9.392;2022-10-17T12:58:35;6.17;;;5.67;;
5606;SDS011;2825;53.116;9.392;2022-10-17T13:01:01;6.50;;;5.97;;
5606;SDS011;2825;53.116;9.392;2022-10-17T13:03:30;6.90;;;6.30;;
5606;SDS011;2825;53.116;9.392;2022-10-17T13:06:02;9.07;;;7.30;;
5606;SDS011;2825;53.116;9.392;2022-10-17T13:08:31;8.53;;;7.60;;
5606;SDS011;2825;53.116;9.392;2022-10-17T13:11:03;8.73;;;7.67;;
5606;SDS011;2825;53.116;9.392;2022-10-17T13:13:38;8.40;;;7.47;;
5606;SDS011;2825;53.116;9.392;2022-10-17T13:16:07;7.93;;;7.33;;
5606;SDS011;2825;53.116;9.392;2022-10-17T13:18:33;8.80;;;7.80;;
5606;SDS011;2825;53.116;9.392;2022-10-17T13:23:25;8.37;;;7.57;;
5606;SDS011;2825;53.116;9.392;2022-10-17T13:26:05;11.43;;;8.87;;
5606;SDS011;2825;53.116;9.392;2022-10-17T13:28:31;9.90;;;8.70;;
5606;SDS011;2825;53.116;9.392;2022-10-17T13:30:57;10.20;;;9.27;;
5606;SDS011;2825;53.116;9.392;2022-10-17T13:36:00;9.63;;;8.60;;
5606;SDS011;2825;53.116;9.392;2022-10-17T13:38:29;11.47;;;10.37;;
5606;SDS011;2825;53.116;9.392;2022-10-17T13:40:57;10.30;;;9.30;;
5606;SDS011;2825;53.116;9.392;2022-10-17T13:43:23;10.83;;;9.83;;
5606;SDS011;2825;53.116;9.392;2022-10-17T13:45:50;12.43;;;10.00;;
5606;SDS011;2825;53.116;9.392;2022-10-17T13:48:27;11.87;;;9.00;;
5606;SDS011;2825;53.116;9.392;2022-10-17T13:50:56;11.03;;;9.90;;
5606;SDS011;2825;53.116;9.392;2022-10-17T13:56:01;10.23;;;9.43;;
5606;SDS011;2825;53.116;9.392;2022-10-17T13:58:43;10.37;;;9.23;;
5606;SDS011;2825;53.116;9.392;2022-10-17T14:01:13;12.10;;;10.90;;
5606;SDS011;2825;53.116;9.392;2022-10-17T14:03:46;11.03;;;10.00;;
5606;SDS011;2825;53.116;9.392;2022-10-17T14:06:17;11.87;;;10.73;;
5606;SDS011;2825;53.116;9.392;2022-10-17T14:14:06;12.07;;;10.97;;
5606;SDS011;2825;53.116;9.392;2022-10-17T14:16:41;10.37;;;8.87;;
5606;SDS011;2825;53.116;9.392;2022-10-17T14:21:51;12.47;;;10.77;;
5606;SDS011;2825;53.116;9.392;2022-10-17T14:26:47;11.87;;;10.87;;
5606;SDS011;2825;53.116;9.392;2022-10-17T14:29:26;13.43;;;11.43;;
5606;SDS011;2825;53.116;9.392;2022-10-17T14:32:03;13.43;;;11.63;;
5606;SDS011;2825;53.116;9.392;2022-10-17T14:34:34;12.57;;;11.50;;
5606;SDS011;2825;53.116;9.392;2022-10-17T14:37:07;11.63;;;10.53;;
5606;SDS011;2825;53.116;9.392;2022-10-17T14:39:35;12.00;;;10.90;;
5606;SDS011;2825;53.116;9.392;2022-10-17T14:42:01;13.77;;;11.43;;
5606;SDS011;2825;53.116;9.392;2022-10-17T14:44:31;11.67;;;10.47;;
5606;SDS011;2825;53.116;9.392;2022-10-17T14:47:00;12.40;;;11.30;;
5606;SDS011;2825;53.116;9.392;2022-10-17T14:52:08;16.37;;;12.37;;
5606;SDS011;2825;53.116;9.392;2022-10-17T14:54:40;15.53;;;14.00;;
5606;SDS011;2825;53.116;9.392;2022-10-17T14:57:17;18.63;;;15.67;;
5606;SDS011;2825;53.116;9.392;2022-10-17T14:59:50;14.83;;;13.53;;
5606;SDS011;2825;53.116;9.392;2022-10-17T15:02:16;16.20;;;13.60;;
5606;SDS011;2825;53.116;9.392;2022-10-17T15:04:42;14.07;;;12.70;;
5606;SDS011;2825;53.116;9.392;2022-10-17T15:07:12;13.87;;;12.50;;
5606;SDS011;2825;53.116;9.392;2022-10-17T15:09:39;14.93;;;13.33;;
5606;SDS011;2825;53.116;9.392;2022-10-17T15:12:06;16.20;;;12.40;;
5606;SDS011;2825;53.116;9.392;2022-10-17T15:14:37;14.80;;;13.30;;
5606;SDS011;2825;53.116;9.392;2022-10-17T15:17:04;11.93;;;10.93;;
5606;SDS011;2825;53.116;9.392;2022-10-17T15:19:37;17.63;;;12.60;;
5606;SDS011;2825;53.116;9.392;2022-10-17T15:22:03;13.47;;;12.27;;
5606;SDS011;2825;53.116;9.392;2022-10-17T15:24:28;17.83;;;10.80;;
5606;SDS011;2825;53.116;9.392;2022-10-17T15:26:54;13.27;;;11.90;;
5606;SDS011;2825;53.116;9.392;2022-10-17T15:29:20;13.57;;;12.30;;
5606;SDS011;2825;53.116;9.392;2022-10-17T15:31:46;13.40;;;12.13;;
5606;SDS011;2825;53.116;9.392;2022-10-17T15:34:11;13.53;;;12.20;;
5606;SDS011;2825;53.116;9.392;2022-10-17T15:36:41;14.30;;;11.73;;
5606;SDS011;2825;53.116;9.392;2022-10-17T15:39:12;13.57;;;12.30;;
5606;SDS011;2825;53.116;9.392;2022-10-17T15:41:37;12.70;;;11.50;;
5606;SDS011;2825;53.116;9.392;2022-10-17T15:44:03;14.93;;;11.73;;
5606;SDS011;2825;53.116;9.392;2022-10-17T15:46:29;14.50;;;13.10;;
5606;SDS011;2825;53.116;9.392;2022-10-17T15:49:00;12.87;;;11.33;;
5606;SDS011;2825;53.116;9.392;2022-10-17T15:51:28;13.33;;;12.20;;
5606;SDS011;2825;53.116;9.392;2022-10-17T15:53:53;14.40;;;12.50;;
5606;SDS011;2825;53.116;9.392;2022-10-17T15:58:53;17.00;;;15.40;;
5606;SDS011;2825;53.116;9.392;2022-10-17T16:01:23;15.60;;;14.00;;
5606;SDS011;2825;53.116;9.392;2022-10-17T16:03:52;15.47;;;11.93;;
5606;SDS011;2825;53.116;9.392;2022-10-17T16:06:18;17.37;;;12.60;;
5606;SDS011;2825;53.116;9.392;2022-10-17T16:08:45;13.57;;;12.47;;
5606;SDS011;2825;53.116;9.392;2022-10-17T16:13:45;14.10;;;12.27;;
5606;SDS011;2825;53.116;9.392;2022-10-17T16:16:15;13.10;;;11.70;;
5606;SDS011;2825;53.116;9.392;2022-10-17T16:18:40;14.30;;;12.70;;
5606;SDS011;2825;53.116;9.392;2022-10-17T16:21:08;14.80;;;13.47;;
5606;SDS011;2825;53.116;9.392;2022-10-17T16:23:37;17.93;;;16.13;;
5606;SDS011;2825;53.116;9.392;2022-10-17T16:26:03;23.77;;;21.03;;
5606;SDS011;2825;53.116;9.392;2022-10-17T16:28:29;19.73;;;17.90;;
5606;SDS011;2825;53.116;9.392;2022-10-17T16:30:54;15.53;;;13.97;;
5606;SDS011;2825;53.116;9.392;2022-10-17T16:33:21;16.33;;;14.47;;
5606;SDS011;2825;53.116;9.392;2022-10-17T16:35:47;15.73;;;14.23;;
5606;SDS011;2825;53.116;9.392;2022-10-17T16:38:13;15.43;;;13.93;;
5606;SDS011;2825;53.116;9.392;2022-10-17T16:40:39;14.60;;;13.30;;
5606;SDS011;2825;53.116;9.392;2022-10-17T16:43:05;15.70;;;14.10;;
5606;SDS011;2825;53.116;9.392;2022-10-17T16:45:32;14.23;;;12.90;;
5606;SDS011;2825;53.116;9.392;2022-10-17T16:47:59;16.67;;;15.27;;
5606;SDS011;2825;53.116;9.392;2022-10-17T16:50:25;16.30;;;14.80;;
5606;SDS011;2825;53.116;9.392;2022-10-17T16:52:51;16.93;;;15.43;;
5606;SDS011;2825;53.116;9.392;2022-10-17T16:55:16;17.03;;;14.97;;
5606;SDS011;2825;53.116;9.392;2022-10-17T16:57:43;16.83;;;15.23;;
5606;SDS011;2825;53.116;9.392;2022-10-17T17:00:09;15.30;;;13.80;;
5606;SDS011;2825;53.116;9.392;2022-10-17T17:02:36;16.70;;;15.10;;
5606;SDS011;2825;53.116;9.392;2022-10-17T17:05:02;14.93;;;13.73;;
5606;SDS011;2825;53.116;9.392;2022-10-17T17:07:28;16.20;;;13.60;;
5606;SDS011;2825;53.116;9.392;2022-10-17T17:09:54;15.23;;;13.73;;
5606;SDS011;2825;53.116;9.392;2022-10-17T17:12:20;16.07;;;13.63;;
5606;SDS011;2825;53.116;9.392;2022-10-17T17:14:46;14.77;;;13.47;;
5606;SDS011;2825;53.116;9.392;2022-10-17T17:17:12;14.47;;;12.97;;
5606;SDS011;2825;53.116;9.392;2022-10-17T17:19:37;16.00;;;14.33;;
5606;SDS011;2825;53.116;9.392;2022-10-17T17:22:03;16.13;;;14.40;;
5606;SDS011;2825;53.116;9.392;2022-10-17T17:24:29;16.27;;;14.80;;
5606;SDS011;2825;53.116;9.392;2022-10-17T17:26:55;17.10;;;15.27;;
5606;SDS011;2825;53.116;9.392;2022-10-17T17:29:21;17.30;;;14.57;;
5606;SDS011;2825;53.116;9.392;2022-10-17T17:31:48;17.43;;;14.87;;
5606;SDS011;2825;53.116;9.392;2022-10-17T17:34:14;17.63;;;14.63;;
5606;SDS011;2825;53.116;9.392;2022-10-17T17:36:40;16.00;;;14.57;;
5606;SDS011;2825;53.116;9.392;2022-10-17T17:39:07;16.30;;;14.70;;
5606;SDS011;2825;53.116;9.392;2022-10-17T17:41:35;18.23;;;16.40;;
5606;SDS011;2825;53.116;9.392;2022-10-17T17:44:01;16.67;;;14.97;;
5606;SDS011;2825;53.116;9.392;2022-10-17T17:46:28;16.73;;;14.97;;
5606;SDS011;2825;53.116;9.392;2022-10-17T17:48:54;21.30;;;16.60;;
5606;SDS011;2825;53.116;9.392;2022-10-17T17:51:21;17.33;;;15.00;;